createdAt,value
2023-01-07T01:16:08.644Z,5.90
2023-01-07T01:17:08.468Z,4.10
2023-01-07T01:18:08.454Z,4.30
2023-01-07T01:19:08.440Z,4.30
2023-01-07T01:20:08.411Z,4.40
2023-01-07T01:21:08.442Z,4.20
2023-01-07T01:22:08.413Z,4.40
2023-01-07T01:23:08.413Z,5.30
2023-01-07T01:24:08.398Z,4.30
2023-01-07T01:25:08.372Z,4.20
2023-01-07T01:26:08.364Z,4.30
2023-01-07T01:27:08.338Z,4.50
2023-01-07T01:28:08.339Z,4.20
2023-01-07T01:29:08.323Z,4.60
2023-01-07T01:30:08.321Z,4.50
2023-01-07T01:31:08.536Z,4.60
2023-01-07T01:32:08.412Z,4.60
2023-01-07T22:44:10.723Z,2.40
2023-01-07T22:45:10.562Z,2.30
2023-01-07T22:46:10.601Z,2.40
2023-01-07T22:47:10.535Z,4.50
2023-01-07T22:48:10.556Z,2.20
2023-01-07T22:49:10.520Z,2.20
2023-01-07T22:50:10.527Z,2.90
2023-01-07T22:51:10.495Z,2.10
2023-01-07T22:52:10.534Z,2.60
2023-01-07T22:53:10.488Z,2.50
2023-01-07T22:54:10.512Z,2.10
2023-01-07T22:55:10.450Z,2.30
2023-01-07T22:56:10.442Z,2.30
2023-01-07T22:57:10.442Z,2.30
2023-01-07T22:58:10.426Z,2.70
2023-01-07T22:59:10.413Z,2.30
2023-01-07T23:00:10.510Z,2.30
2023-01-07T23:01:10.460Z,2.10
2023-01-07T23:02:10.403Z,2.90
2023-01-07T23:03:10.389Z,2.70
2023-01-07T23:04:10.409Z,2.60
2023-01-07T23:05:10.342Z,3.00
2023-01-07T23:06:10.330Z,2.50
2023-01-07T23:07:10.334Z,2.10
2023-01-07T23:08:10.328Z,2.50
2023-01-07T23:09:10.316Z,3.20
2023-01-07T23:10:10.406Z,2.30
2023-01-07T23:11:10.286Z,2.00
2023-01-07T23:12:10.292Z,2.40
2023-01-07T23:13:10.249Z,2.80
2023-01-07T23:14:10.279Z,2.30
2023-01-07T23:15:10.246Z,2.20
2023-01-07T23:16:10.433Z,2.20
2023-01-07T23:17:10.209Z,2.60
2023-01-07T23:18:10.209Z,2.20
2023-01-07T23:19:10.201Z,2.40
2023-01-07T23:20:10.183Z,2.40
2023-01-07T23:21:10.167Z,2.60
2023-01-07T23:22:10.168Z,2.10
2023-01-07T23:23:10.143Z,2.20
2023-01-07T23:24:10.171Z,2.40
2023-01-07T23:25:10.162Z,2.50
2023-01-07T23:26:10.136Z,2.30
2023-01-07T23:27:10.099Z,2.40
2023-01-07T23:28:10.097Z,2.50
2023-01-07T23:29:10.093Z,2.20
2023-01-07T23:30:10.099Z,2.20
2023-01-07T23:31:10.142Z,2.20
2023-01-07T23:32:10.164Z,1.80
2023-01-07T23:33:10.047Z,2.10
2023-01-07T23:34:10.041Z,2.10
2023-01-07T23:35:10.039Z,2.00
2023-01-07T23:36:10.041Z,3.50
2023-01-07T23:37:10.037Z,2.40
2023-01-07T23:38:09.985Z,2.40
2023-01-07T23:39:09.994Z,3.40
2023-01-07T23:40:09.979Z,2.60
2023-01-07T23:41:09.949Z,2.40
2023-01-07T23:42:09.964Z,2.00
2023-01-07T23:43:09.938Z,3.30
2023-01-07T23:44:09.942Z,2.40
2023-01-07T23:45:09.917Z,2.60
2023-01-07T23:46:09.995Z,2.20
2023-01-07T23:47:09.908Z,2.30
2023-01-07T23:48:09.991Z,2.10
2023-01-07T23:49:09.860Z,2.40
2023-01-07T23:50:09.853Z,2.90
2023-01-07T23:51:09.882Z,2.30
2023-01-07T23:52:09.842Z,2.20
2023-01-07T23:53:09.815Z,2.30
2023-01-07T23:54:09.808Z,1.90
2023-01-07T23:55:09.805Z,2.10
2023-01-07T23:56:09.803Z,2.90
2023-01-07T23:57:09.785Z,2.40
2023-01-07T23:58:09.779Z,2.00
2023-01-07T23:59:09.775Z,2.90
